createdAt,value
2022-08-26T00:01:57.454Z,90.33
2022-08-26T00:04:29.984Z,85.93
2022-08-26T00:07:01.737Z,88.70
2022-08-26T00:09:37.252Z,84.53
2022-08-26T00:12:12.391Z,91.93
2022-08-26T00:14:44.265Z,89.70
2022-08-26T00:17:15.937Z,86.83
2022-08-26T00:19:47.538Z,87.30
2022-08-26T00:22:21.596Z,105.60
2022-08-26T00:24:53.357Z,90.28
2022-08-26T00:27:25.020Z,91.40
2022-08-26T00:29:57.335Z,85.17
2022-08-26T00:32:30.134Z,86.53
2022-08-26T00:35:04.449Z,84.90
2022-08-26T00:40:13.222Z,90.00
2022-08-26T00:42:45.917Z,87.80
2022-08-26T00:45:18.347Z,89.33
2022-08-26T00:47:54.680Z,85.17
2022-08-26T00:50:32.941Z,89.30
2022-08-26T00:53:23.837Z,82.60
2022-08-26T00:56:13.274Z,83.40
2022-08-26T00:58:48.935Z,91.40
2022-08-26T01:01:22.931Z,84.80
2022-08-26T01:06:28.534Z,86.83
2022-08-26T01:09:05.225Z,85.65
2022-08-26T01:11:40.300Z,82.43
2022-08-26T01:14:13.577Z,86.83
2022-08-26T01:16:45.734Z,85.10
2022-08-26T01:19:24.989Z,87.40
2022-08-26T01:22:00.140Z,84.67
2022-08-26T01:24:31.895Z,123.13
2022-08-26T01:27:07.652Z,87.80
2022-08-26T01:29:42.689Z,88.97
2022-08-26T01:32:18.616Z,88.30
2022-08-26T01:34:50.861Z,85.10
2022-08-26T01:37:28.871Z,83.07
2022-08-26T01:40:00.793Z,87.13
2022-08-26T01:42:32.894Z,83.93
2022-08-26T01:45:16.447Z,82.07
2022-08-26T01:47:49.994Z,86.73
2022-08-26T01:50:35.155Z,86.87
2022-08-26T01:53:10.798Z,87.80
2022-08-26T01:55:46.131Z,87.63
2022-08-26T01:58:30.380Z,84.97
2022-08-26T02:01:02.976Z,83.67
2022-08-26T02:03:39.705Z,86.65
2022-08-26T02:06:15.001Z,85.60
2022-08-26T02:08:50.663Z,86.03
2022-08-26T02:11:22.949Z,83.43
2022-08-26T02:14:02.812Z,88.80
2022-08-26T02:16:39.641Z,83.23
2022-08-26T02:19:20.378Z,87.10
2022-08-26T02:21:53.748Z,88.77
2022-08-26T02:24:29.780Z,87.77
2022-08-26T02:27:01.573Z,84.70
2022-08-26T02:29:38.318Z,83.87
2022-08-26T02:32:10.227Z,86.57
2022-08-26T02:34:41.885Z,81.20
2022-08-26T02:37:14.183Z,82.43
2022-08-26T02:39:45.889Z,83.70
2022-08-26T02:44:51.920Z,86.77
2022-08-26T02:47:24.772Z,83.77
2022-08-26T02:49:56.917Z,81.87
2022-08-26T02:52:28.606Z,79.97
2022-08-26T02:55:00.218Z,85.37
2022-08-26T02:57:33.185Z,86.57
2022-08-26T03:00:07.205Z,81.07
2022-08-26T03:02:38.825Z,81.60
2022-08-26T03:05:11.366Z,84.47
2022-08-26T03:07:43.470Z,83.57
2022-08-26T03:10:18.479Z,286.20
2022-08-26T03:12:50.135Z,403.00
2022-08-26T03:15:24.372Z,402.10
2022-08-26T03:17:56.292Z,402.40
2022-08-26T03:20:28.757Z,297.20
2022-08-26T03:23:04.393Z,90.10
2022-08-26T03:25:36.039Z,88.27
2022-08-26T03:28:09.518Z,90.37
2022-08-26T03:30:44.639Z,90.17
2022-08-26T03:33:16.945Z,93.13
2022-08-26T03:35:50.666Z,88.23
2022-08-26T03:38:25.169Z,91.85
2022-08-26T03:43:28.839Z,95.57
2022-08-26T03:46:08.590Z,94.27
2022-08-26T03:48:40.611Z,94.00
2022-08-26T03:51:19.418Z,93.30
2022-08-26T03:53:51.015Z,93.33
2022-08-26T03:56:22.712Z,91.07
2022-08-26T03:58:54.765Z,92.20
2022-08-26T04:01:27.595Z,90.20
2022-08-26T04:04:00.424Z,96.00
2022-08-26T04:06:35.705Z,92.30
2022-08-26T04:09:10.394Z,90.60
2022-08-26T04:11:43.825Z,95.40
2022-08-26T04:14:20.059Z,94.20
2022-08-26T04:16:55.382Z,95.63
2022-08-26T04:19:27.057Z,88.50
2022-08-26T04:21:59.169Z,91.10
2022-08-26T04:24:32.896Z,90.40
2022-08-26T04:27:04.770Z,91.83
2022-08-26T04:29:43.580Z,90.17
2022-08-26T04:32:15.694Z,92.23
2022-08-26T04:34:48.077Z,93.73
2022-08-26T04:37:20.302Z,90.00
2022-08-26T04:39:54.352Z,89.83
2022-08-26T04:42:26.349Z,95.20
2022-08-26T04:45:01.124Z,98.53
2022-08-26T04:47:32.806Z,94.57
2022-08-26T04:50:05.089Z,289.10
2022-08-26T04:55:10.705Z,394.53
2022-08-26T04:57:43.117Z,93.10
2022-08-26T05:00:15.407Z,93.57
2022-08-26T05:02:47.106Z,95.53
2022-08-26T05:05:23.505Z,98.23
2022-08-26T05:07:55.101Z,91.80
2022-08-26T05:10:27.024Z,95.20
2022-08-26T05:13:00.260Z,95.77
2022-08-26T05:15:31.836Z,99.00
2022-08-26T05:18:07.781Z,96.87
2022-08-26T05:20:41.581Z,96.33
2022-08-26T05:23:14.782Z,97.60
2022-08-26T05:25:48.816Z,98.07
2022-08-26T05:28:22.110Z,98.03
2022-08-26T05:30:54.306Z,98.80
2022-08-26T05:33:25.977Z,107.17
2022-08-26T05:35:57.612Z,102.87
2022-08-26T05:38:30.262Z,99.50
2022-08-26T05:41:02.601Z,101.40
2022-08-26T05:43:38.439Z,102.87
2022-08-26T05:46:10.561Z,99.93
2022-08-26T05:48:44.208Z,103.20
2022-08-26T05:51:16.190Z,102.15
2022-08-26T05:53:54.585Z,102.50
2022-08-26T05:56:27.831Z,110.57
2022-08-26T05:59:03.283Z,110.90
2022-08-26T06:01:36.143Z,107.40
2022-08-26T06:04:07.947Z,105.50
2022-08-26T06:06:42.685Z,114.10
2022-08-26T06:09:17.438Z,112.87
2022-08-26T06:11:50.189Z,120.73
2022-08-26T06:14:22.972Z,115.90
2022-08-26T06:16:54.955Z,115.67
2022-08-26T06:19:32.797Z,121.13
2022-08-26T06:22:24.868Z,117.03
2022-08-26T06:25:15.850Z,122.77
2022-08-26T06:27:48.870Z,119.77
2022-08-26T06:30:21.063Z,112.70
2022-08-26T06:32:54.228Z,126.20
2022-08-26T06:35:26.709Z,129.03
2022-08-26T06:37:58.425Z,120.77
2022-08-26T06:40:30.156Z,124.27
2022-08-26T06:43:01.977Z,125.90
2022-08-26T06:45:34.714Z,122.27
2022-08-26T06:48:07.537Z,128.00
2022-08-26T06:50:40.859Z,125.80
2022-08-26T06:53:13.636Z,130.50
2022-08-26T06:55:46.911Z,125.13
2022-08-26T06:58:23.469Z,131.47
2022-08-26T07:01:01.991Z,129.73
2022-08-26T07:03:39.628Z,134.70
2022-08-26T07:06:11.836Z,129.87
2022-08-26T07:08:43.421Z,133.33
2022-08-26T07:11:16.416Z,140.57
2022-08-26T07:13:50.455Z,138.23
2022-08-26T07:16:27.508Z,138.80
2022-08-26T07:18:59.329Z,131.53
2022-08-26T07:21:33.107Z,136.93
2022-08-26T07:24:04.771Z,139.27
2022-08-26T07:26:36.422Z,138.05
2022-08-26T07:29:09.888Z,141.25
2022-08-26T07:31:42.691Z,137.73
2022-08-26T07:34:17.134Z,138.57
2022-08-26T07:36:51.462Z,140.43
2022-08-26T07:39:26.788Z,137.45
2022-08-26T07:41:59.936Z,143.52
2022-08-26T07:44:31.645Z,139.60
2022-08-26T07:47:03.746Z,141.07
2022-08-26T07:49:42.690Z,146.40
2022-08-26T07:52:14.321Z,142.15
2022-08-26T07:54:45.903Z,138.15
2022-08-26T07:57:17.493Z,143.15
2022-08-26T07:59:51.063Z,144.30
2022-08-26T08:02:24.129Z,145.15
2022-08-26T08:04:56.845Z,146.52
2022-08-26T08:07:44.530Z,139.43
2022-08-26T08:10:21.063Z,138.38
2022-08-26T08:12:53.476Z,139.25
2022-08-26T08:15:28.747Z,141.60
2022-08-26T08:18:00.998Z,146.05
2022-08-26T08:20:34.114Z,140.80
2022-08-26T08:23:05.773Z,139.05
2022-08-26T08:25:38.178Z,132.88
2022-08-26T08:28:09.970Z,134.02
2022-08-26T08:30:42.970Z,135.53
2022-08-26T08:33:14.898Z,135.57
2022-08-26T08:35:46.490Z,126.70
2022-08-26T08:38:18.476Z,131.30
2022-08-26T08:40:50.784Z,125.45
2022-08-26T08:43:38.373Z,127.03
2022-08-26T08:46:16.804Z,130.43
2022-08-26T08:48:57.190Z,132.18
2022-08-26T08:51:52.311Z,132.73
2022-08-26T08:54:26.762Z,131.93
2022-08-26T08:58:02.070Z,130.43
2022-08-26T09:00:58.591Z,137.98
2022-08-26T09:03:53.508Z,131.98
2022-08-26T09:06:25.700Z,133.20
2022-08-26T09:09:04.800Z,129.15
2022-08-26T09:11:38.788Z,132.52
2022-08-26T09:14:10.699Z,134.10
2022-08-26T09:16:59.127Z,132.73
2022-08-26T09:20:01.341Z,128.23
2022-08-26T09:22:39.117Z,128.02
2022-08-26T09:25:13.737Z,133.88
2022-08-26T09:27:50.263Z,127.35
2022-08-26T09:30:32.946Z,127.68
2022-08-26T09:33:11.161Z,131.38
2022-08-26T09:35:47.305Z,129.25
2022-08-26T09:38:28.021Z,129.38
2022-08-26T09:41:05.420Z,130.38
2022-08-26T09:43:38.414Z,129.63
2022-08-26T09:46:18.597Z,128.52
2022-08-26T09:48:51.793Z,132.68
2022-08-26T09:51:30.776Z,136.75
2022-08-26T09:54:05.717Z,134.32
2022-08-26T09:56:39.837Z,136.05
2022-08-26T09:59:14.301Z,130.48
2022-08-26T10:01:50.659Z,130.52
2022-08-26T10:04:31.907Z,132.00
2022-08-26T10:07:08.094Z,129.57
2022-08-26T10:09:43.138Z,125.65
2022-08-26T10:12:21.413Z,133.00
2022-08-26T10:14:57.477Z,129.00
2022-08-26T10:17:38.481Z,130.40
2022-08-26T10:20:26.345Z,132.75
2022-08-26T10:23:18.525Z,130.82
2022-08-26T10:26:02.829Z,122.90
2022-08-26T10:28:50.079Z,126.72
2022-08-26T10:31:40.598Z,127.80
2022-08-26T10:34:14.148Z,124.63
2022-08-26T10:37:14.725Z,138.13
2022-08-26T10:40:16.120Z,131.15
2022-08-26T10:43:12.451Z,125.68
2022-08-26T10:45:51.313Z,126.88
2022-08-26T10:48:43.931Z,128.90
2022-08-26T10:51:28.814Z,132.32
2022-08-26T10:54:37.362Z,125.75
2022-08-26T10:57:30.378Z,123.82
2022-08-26T11:00:44.053Z,130.60
2022-08-26T11:03:21.710Z,121.20
2022-08-26T11:06:19.148Z,126.28
2022-08-26T11:08:53.949Z,127.10
2022-08-26T11:11:40.552Z,130.63
2022-08-26T11:14:28.953Z,128.43
2022-08-26T11:17:02.121Z,124.88
2022-08-26T11:19:59.599Z,119.20
2022-08-26T11:22:47.918Z,127.18
2022-08-26T11:25:24.439Z,124.65
2022-08-26T11:28:00.617Z,129.73
2022-08-26T11:30:42.703Z,130.50
2022-08-26T11:33:43.879Z,127.43
2022-08-26T11:36:51.920Z,132.00
2022-08-26T11:39:54.723Z,130.48
2022-08-26T11:42:42.722Z,126.50
2022-08-26T11:45:17.965Z,120.78
2022-08-26T11:47:50.132Z,126.22
2022-08-26T11:50:26.393Z,122.07
2022-08-26T11:53:06.282Z,121.82
2022-08-26T11:55:44.889Z,120.75
2022-08-26T11:58:22.307Z,122.50
2022-08-26T12:01:27.446Z,121.90
2022-08-26T12:04:08.282Z,130.85
2022-08-26T12:06:47.402Z,120.82
2022-08-26T12:09:28.565Z,120.25
2022-08-26T12:12:12.105Z,120.97
2022-08-26T12:14:44.701Z,120.75
2022-08-26T12:17:28.597Z,124.70
2022-08-26T12:20:00.240Z,120.85
2022-08-26T12:22:35.925Z,127.93
2022-08-26T12:25:10.124Z,125.55
2022-08-26T12:27:44.074Z,127.50
2022-08-26T12:30:22.465Z,124.18
2022-08-26T12:33:22.494Z,120.82
2022-08-26T12:35:56.653Z,119.75
2022-08-26T12:38:29.902Z,124.53
2022-08-26T12:41:01.694Z,125.72
2022-08-26T12:43:40.637Z,120.43
2022-08-26T12:46:26.906Z,119.07
2022-08-26T12:49:03.919Z,125.50
2022-08-26T12:51:41.979Z,129.80
2022-08-26T12:54:15.938Z,125.67
2022-08-26T12:56:47.637Z,120.50
2022-08-26T12:59:26.076Z,122.70
2022-08-26T13:01:58.052Z,114.13
2022-08-26T13:04:33.908Z,117.82
2022-08-26T13:07:34.628Z,121.57
2022-08-26T13:10:06.622Z,122.70
2022-08-26T13:12:42.061Z,118.70
2022-08-26T13:15:13.671Z,116.72
2022-08-26T13:17:45.308Z,122.50
2022-08-26T13:20:17.072Z,120.87
2022-08-26T13:22:51.697Z,120.63
2022-08-26T13:25:30.124Z,122.30
2022-08-26T13:28:01.898Z,117.68
2022-08-26T13:30:33.637Z,117.27
2022-08-26T13:33:06.339Z,123.20
2022-08-26T13:35:38.730Z,121.87
2022-08-26T13:38:22.369Z,123.60
2022-08-26T13:41:06.303Z,126.05
2022-08-26T13:43:37.995Z,123.43
2022-08-26T13:46:09.662Z,122.85
2022-08-26T13:48:41.315Z,124.93
2022-08-26T13:51:18.587Z,121.87
2022-08-26T13:53:52.400Z,123.15
2022-08-26T13:58:57.946Z,121.07
2022-08-26T14:01:31.137Z,124.00
2022-08-26T14:04:03.325Z,122.18
2022-08-26T14:06:34.948Z,121.75
2022-08-26T14:09:06.622Z,120.43
2022-08-26T14:11:41.281Z,122.70
2022-08-26T14:14:26.934Z,121.43
2022-08-26T14:17:00.282Z,121.07
2022-08-26T14:19:32.371Z,117.43
2022-08-26T14:22:04.185Z,123.67
2022-08-26T14:24:35.811Z,127.93
2022-08-26T14:27:07.444Z,119.00
2022-08-26T14:29:40.034Z,124.95
2022-08-26T14:32:24.678Z,123.93
2022-08-26T14:34:56.493Z,123.68
2022-08-26T14:37:28.159Z,123.33
2022-08-26T14:39:59.888Z,122.20
2022-08-26T14:42:32.299Z,118.03
2022-08-26T14:45:07.201Z,120.53
2022-08-26T14:47:39.309Z,127.23
2022-08-26T14:50:17.302Z,118.87
2022-08-26T14:53:07.876Z,74.55
2022-08-26T14:55:41.859Z,15.85
2022-08-26T14:58:13.479Z,290.30
2022-08-26T15:00:45.140Z,119.80
2022-08-26T15:05:55.589Z,119.60
2022-08-26T15:08:27.253Z,121.60
2022-08-26T15:10:59.611Z,119.63
2022-08-26T15:13:33.921Z,118.93
2022-08-26T15:16:07.165Z,120.97
2022-08-26T15:18:41.728Z,122.43
2022-08-26T15:21:13.343Z,118.27
2022-08-26T15:23:47.787Z,115.97
2022-08-26T15:26:20.917Z,118.03
2022-08-26T15:28:52.720Z,117.20
2022-08-26T15:31:31.384Z,121.93
2022-08-26T15:34:06.387Z,116.80
2022-08-26T15:36:38.481Z,120.53
2022-08-26T15:39:10.653Z,115.03
2022-08-26T15:41:42.435Z,118.53
2022-08-26T15:44:14.360Z,114.10
2022-08-26T15:46:48.349Z,113.13
2022-08-26T15:49:20.092Z,116.55
2022-08-26T15:51:53.311Z,107.83
2022-08-26T15:54:25.005Z,109.63
2022-08-26T15:56:59.487Z,100.30
2022-08-26T15:59:34.164Z,105.63
2022-08-26T16:02:05.943Z,102.10
2022-08-26T16:04:37.604Z,102.53
2022-08-26T16:07:09.256Z,102.10
2022-08-26T16:09:40.866Z,105.43
2022-08-26T16:12:12.551Z,100.37
2022-08-26T16:14:45.562Z,105.27
2022-08-26T16:17:18.275Z,97.73
2022-08-26T16:19:49.971Z,98.47
2022-08-26T16:22:21.628Z,99.33
2022-08-26T16:24:58.250Z,98.53
2022-08-26T16:27:29.863Z,93.53
2022-08-26T16:30:03.642Z,96.80
2022-08-26T16:32:35.318Z,96.68
2022-08-26T16:35:07.438Z,95.10
2022-08-26T16:37:39.490Z,96.70
2022-08-26T16:40:11.462Z,101.87
2022-08-26T16:42:45.093Z,102.23
2022-08-26T16:45:17.176Z,96.80
2022-08-26T16:47:50.022Z,103.27
2022-08-26T16:50:25.937Z,98.27
2022-08-26T16:52:57.611Z,93.27
2022-08-26T16:55:30.044Z,96.47
2022-08-26T16:58:02.312Z,100.43
2022-08-26T17:00:34.699Z,101.20
2022-08-26T17:03:06.490Z,99.20
2022-08-26T17:05:40.875Z,99.63
2022-08-26T17:08:16.359Z,96.10
2022-08-26T17:11:01.035Z,99.23
2022-08-26T17:13:35.245Z,91.67
2022-08-26T17:16:09.807Z,93.27
2022-08-26T17:18:41.532Z,98.78
2022-08-26T17:21:16.265Z,92.83
2022-08-26T17:23:48.060Z,91.83
2022-08-26T17:26:20.212Z,93.90
2022-08-26T17:28:52.591Z,97.13
2022-08-26T17:31:27.234Z,97.80
2022-08-26T17:33:59.005Z,94.33
2022-08-26T17:36:30.579Z,96.97
2022-08-26T17:39:02.286Z,95.67
2022-08-26T17:41:33.994Z,100.07
2022-08-26T17:44:05.840Z,97.37
2022-08-26T17:46:38.492Z,94.80
2022-08-26T17:49:10.314Z,100.53
2022-08-26T17:51:41.928Z,99.73
2022-08-26T17:54:14.441Z,98.67
2022-08-26T17:56:46.042Z,96.10
2022-08-26T17:59:20.655Z,90.53
2022-08-26T18:01:56.656Z,94.10
2022-08-26T18:04:28.418Z,96.10
2022-08-26T18:07:00.081Z,96.77
2022-08-26T18:09:32.352Z,94.80
2022-08-26T18:12:09.067Z,93.40
2022-08-26T18:14:40.691Z,91.27
2022-08-26T18:17:12.376Z,90.57
2022-08-26T18:19:49.174Z,93.67
2022-08-26T18:22:21.933Z,91.90
2022-08-26T18:24:58.847Z,90.67
2022-08-26T18:27:30.948Z,89.33
2022-08-26T18:30:09.805Z,86.63
2022-08-26T18:32:44.280Z,86.30
2022-08-26T18:35:16.844Z,86.03
2022-08-26T18:37:48.405Z,90.93
2022-08-26T18:40:22.100Z,89.13
2022-08-26T18:42:54.037Z,91.10
2022-08-26T18:45:25.951Z,91.07
2022-08-26T18:47:57.544Z,94.27
2022-08-26T18:50:30.633Z,85.77
2022-08-26T18:53:02.550Z,90.27
2022-08-26T18:55:34.238Z,86.73
2022-08-26T18:58:05.826Z,89.80
2022-08-26T19:00:37.804Z,95.70
2022-08-26T19:03:18.452Z,89.20
2022-08-26T19:05:50.804Z,92.23
2022-08-26T19:08:22.600Z,93.13
2022-08-26T19:10:54.278Z,87.60
2022-08-26T19:13:25.904Z,88.93
2022-08-26T19:15:57.594Z,92.60
2022-08-26T19:18:29.521Z,94.03
2022-08-26T19:21:03.517Z,87.40
2022-08-26T19:23:35.357Z,99.65
2022-08-26T19:26:07.701Z,90.50
2022-08-26T19:28:40.811Z,90.73
2022-08-26T19:31:12.747Z,92.23
2022-08-26T19:33:45.400Z,93.00
2022-08-26T19:36:21.727Z,90.43
2022-08-26T19:38:54.357Z,89.97
2022-08-26T19:41:37.240Z,94.87
2022-08-26T19:44:35.076Z,89.37
2022-08-26T19:47:08.882Z,93.37
2022-08-26T19:49:40.870Z,90.40
2022-08-26T19:52:12.551Z,92.80
2022-08-26T19:54:44.573Z,94.70
2022-08-26T19:57:16.925Z,91.10
2022-08-26T19:59:48.604Z,90.50
2022-08-26T20:02:22.298Z,94.37
2022-08-26T20:04:54.585Z,90.60
2022-08-26T20:07:26.706Z,88.10
2022-08-26T20:09:59.476Z,95.40
2022-08-26T20:12:33.592Z,99.57
2022-08-26T20:15:05.818Z,86.55
2022-08-26T20:17:38.386Z,88.13
2022-08-26T20:20:33.787Z,85.33
2022-08-26T20:23:06.048Z,88.83
2022-08-26T20:25:38.028Z,91.27
2022-08-26T20:28:10.027Z,93.20
2022-08-26T20:30:41.906Z,91.83
2022-08-26T20:33:13.557Z,90.63
2022-08-26T20:35:49.169Z,91.20
2022-08-26T20:38:21.581Z,95.80
2022-08-26T20:40:54.127Z,95.50
2022-08-26T20:43:28.059Z,93.13
2022-08-26T20:46:00.711Z,92.37
2022-08-26T20:48:35.022Z,86.70
2022-08-26T20:53:41.367Z,88.93
2022-08-26T20:56:15.334Z,90.80
2022-08-26T20:58:47.160Z,88.28
2022-08-26T21:01:24.562Z,90.30
2022-08-26T21:03:57.215Z,89.17
2022-08-26T21:06:29.665Z,91.20
2022-08-26T21:09:04.137Z,101.20
2022-08-26T21:11:37.164Z,89.47
2022-08-26T21:14:16.260Z,91.80
2022-08-26T21:16:49.878Z,101.97
2022-08-26T21:19:21.735Z,89.87
2022-08-26T21:21:53.696Z,88.00
2022-08-26T21:24:25.396Z,89.33
2022-08-26T21:26:57.065Z,92.67
2022-08-26T21:29:28.710Z,87.03
2022-08-26T21:32:00.484Z,89.23
2022-08-26T21:34:32.277Z,91.23
2022-08-26T21:37:08.961Z,88.33
2022-08-26T21:39:48.474Z,85.05
2022-08-26T21:42:20.420Z,86.73
2022-08-26T21:44:53.485Z,91.53
2022-08-26T21:47:25.674Z,85.07
2022-08-26T21:49:57.427Z,87.63
2022-08-26T21:52:29.365Z,85.83
2022-08-26T21:55:02.376Z,88.13
2022-08-26T21:57:34.292Z,87.07
2022-08-26T22:00:09.031Z,88.17
2022-08-26T22:02:40.702Z,86.97
2022-08-26T22:05:12.454Z,90.53
2022-08-26T22:07:46.140Z,93.20
2022-08-26T22:10:17.814Z,85.63
2022-08-26T22:12:49.436Z,87.63
2022-08-26T22:15:23.277Z,84.83
2022-08-26T22:17:54.982Z,89.40
2022-08-26T22:20:26.638Z,89.43
2022-08-26T22:22:59.026Z,84.43
2022-08-26T22:25:30.813Z,86.07
2022-08-26T22:28:02.637Z,85.07
2022-08-26T22:30:35.377Z,81.23
2022-08-26T22:33:07.030Z,86.37
2022-08-26T22:35:43.720Z,86.23
2022-08-26T22:38:16.028Z,87.13
2022-08-26T22:40:57.140Z,85.40
2022-08-26T22:43:29.537Z,89.03
2022-08-26T22:46:01.276Z,91.17
2022-08-26T22:48:32.913Z,83.47
2022-08-26T22:51:05.374Z,85.47
2022-08-26T22:53:40.044Z,85.97
2022-08-26T22:56:14.554Z,88.03
2022-08-26T22:58:49.377Z,82.80
2022-08-26T23:01:21.200Z,83.97
2022-08-26T23:03:53.571Z,82.90
2022-08-26T23:06:25.255Z,85.87
2022-08-26T23:08:56.890Z,83.57
2022-08-26T23:11:28.529Z,81.00
2022-08-26T23:14:05.040Z,80.53
2022-08-26T23:16:41.606Z,78.27
2022-08-26T23:19:15.096Z,79.43
2022-08-26T23:21:47.625Z,81.70
2022-08-26T23:24:19.381Z,81.83
2022-08-26T23:26:51.092Z,78.93
2022-08-26T23:29:22.716Z,78.80
2022-08-26T23:31:54.544Z,80.87
2022-08-26T23:34:44.735Z,80.17
2022-08-26T23:37:19.631Z,79.20
2022-08-26T23:42:27.851Z,82.20
2022-08-26T23:45:02.684Z,76.57
2022-08-26T23:47:35.127Z,78.67
2022-08-26T23:50:08.298Z,81.60
2022-08-26T23:52:58.558Z,80.13
2022-08-26T23:55:34.475Z,80.67
2022-08-26T23:58:06.713Z,79.93
